Time;durP1;ratioP1;P1;durP2;ratioP2;P2;SDS_P1;SDS_P2;PMS_P1;PMS_P2;Temp;Humidity;BMP_temperature;BMP_pressure;BME280_temperature;BME280_humidity;BME280_pressure;Samples;Min_cycle;Max_cycle;Signal;HPM_P1;HPM_P2
2023/01/12 00:02:22;;;;;;;47.30;27.30;;;;;;;2.81;96.58;99894.74;103468;1256;108685;-78
2023/01/12 00:04:50;;;;;;;48.20;28.60;;;;;;;2.80;96.82;99896.98;103311;1254;97686;-78
2023/01/12 00:07:19;;;;;;;51.10;28.20;;;;;;;2.79;97.28;99896.98;103341;1252;138169;-78
2023/01/12 00:09:46;;;;;;;53.00;27.00;;;;;;;2.79;97.37;99896.31;103453;1254;97810;-79
2023/01/12 00:12:13;;;;;;;53.70;29.00;;;;;;;2.79;97.67;99896.48;103339;1254;138948;-78
2023/01/12 00:14:41;;;;;;;51.00;27.30;;;;;;;2.78;97.83;99900.27;103468;1254;107421;-79
2023/01/12 00:17:10;;;;;;;52.00;29.40;;;;;;;2.76;98.53;99901.83;103421;1256;98966;-79
2023/01/12 00:19:39;;;;;;;54.40;28.60;;;;;;;2.77;98.42;99903.36;103332;1253;138332;-79
2023/01/12 00:22:10;;;;;;;52.90;28.90;;;;;;;2.77;98.72;99903.02;102729;1256;1003795;-79
2023/01/12 00:24:39;;;;;;;51.10;28.90;;;;;;;2.77;99.14;99906.98;102641;1255;1002817;-79
2023/01/12 00:27:08;;;;;;;49.70;28.00;;;;;;;2.77;99.07;99905.59;103462;1253;106817;-79
2023/01/12 00:29:36;;;;;;;49.60;28.40;;;;;;;2.78;99.17;99909.02;103481;1253;97834;-79
2023/01/12 00:32:05;;;;;;;48.50;27.70;;;;;;;2.79;99.21;99907.64;101802;1254;1003351;-79
2023/01/12 00:34:33;;;;;;;49.30;27.30;;;;;;;2.81;99.48;99907.62;103355;1254;97812;-79
2023/01/12 00:37:02;;;;;;;48.60;28.40;;;;;;;2.84;99.61;99903.14;102634;1254;1002829;-78
2023/01/12 00:39:30;;;;;;;46.80;27.10;;;;;;;2.87;99.87;99905.88;102729;1253;1003357;-79
2023/01/12 00:47:27;;;;;;;44.70;26.60;;;;;;;2.96;100.00;99915.09;102703;1253;1003213;-78
2023/01/12 00:49:54;;;;;;;45.30;26.30;;;;;;;2.98;100.00;99917.30;103311;1256;138696;-77
2023/01/12 00:52:22;;;;;;;47.00;26.30;;;;;;;3.01;100.00;99920.02;103405;1255;108939;-77
2023/01/12 00:54:58;;;;;;;46.90;26.10;;;;;;;3.03;100.00;99918.11;103672;1254;139109;-78
2023/01/12 00:57:25;;;;;;;46.90;27.20;;;;;;;3.07;100.00;99916.40;103729;1253;107253;-78
2023/01/12 00:59:53;;;;;;;42.00;25.50;;;;;;;3.09;100.00;99920.16;102510;1256;1003023;-78
2023/01/12 01:02:22;;;;;;;45.20;26.30;;;;;;;3.10;100.00;99918.61;103331;1253;111902;-78
2023/01/12 01:04:49;;;;;;;46.60;26.90;;;;;;;3.13;100.00;99920.30;103388;1253;107871;-78
2023/01/12 01:07:17;;;;;;;45.60;26.30;;;;;;;3.15;100.00;99919.77;103342;1253;138560;-78
2023/01/12 01:09:44;;;;;;;45.90;26.20;;;;;;;3.17;100.00;99921.98;103949;1253;108977;-79
2023/01/12 01:12:11;;;;;;;48.40;26.50;;;;;;;3.17;100.00;99918.89;103300;1255;138940;-78
2023/01/12 01:14:39;;;;;;;41.90;25.40;;;;;;;3.17;100.00;99917.34;103581;1253;112109;-79
2023/01/12 01:17:06;;;;;;;47.70;26.30;;;;;;;3.18;100.00;99915.27;103569;1253;107756;-79
2023/01/12 01:19:33;;;;;;;42.50;25.30;;;;;;;3.20;100.00;99914.91;103350;1255;138634;-78
2023/01/12 01:22:00;;;;;;;43.00;25.00;;;;;;;3.21;100.00;99915.23;103451;1254;108269;-78
2023/01/12 01:24:28;;;;;;;48.60;26.50;;;;;;;3.22;100.00;99914.20;103996;1253;139550;-79
2023/01/12 01:26:55;;;;;;;41.00;25.40;;;;;;;3.24;100.00;99917.48;104002;1252;110632;-79
2023/01/12 01:29:22;;;;;;;47.40;27.30;;;;;;;3.26;100.00;99913.51;103501;1256;108504;-79
2023/01/12 01:31:49;;;;;;;43.50;25.50;;;;;;;3.27;100.00;99909.02;103417;1253;140194;-79
2023/01/12 01:34:17;;;;;;;42.80;25.90;;;;;;;3.30;100.00;99906.42;103465;1254;106027;-79
2023/01/12 01:36:44;;;;;;;40.80;25.20;;;;;;;3.31;100.00;99904.87;103357;1253;140489;-78
2023/01/12 01:39:11;;;;;;;44.10;25.90;;;;;;;3.32;100.00;99905.37;103407;1252;111584;-79
2023/01/12 01:41:38;;;;;;;44.00;25.80;;;;;;;3.33;100.00;99902.45;102590;1254;1003576;-79
2023/01/12 01:44:38;;;;;;;46.60;26.20;;;;;;;3.35;100.00;99904.83;104243;1255;139054;-79
2023/01/12 01:47:08;;;;;;;43.90;25.90;;;;;;;3.36;100.00;99904.82;103935;1253;1002944;-79
2023/01/12 01:49:39;;;;;;;42.40;25.00;;;;;;;3.37;100.00;99908.77;104688;1252;138643;-79
2023/01/12 01:52:11;;;;;;;42.10;25.00;;;;;;;3.38;100.00;99907.02;104677;1251;112649;-80
2023/01/12 01:54:41;;;;;;;44.90;25.10;;;;;;;3.40;100.00;99907.36;103559;1256;1002290;-79
2023/01/12 01:57:11;;;;;;;39.20;24.60;;;;;;;3.42;100.00;99907.02;103503;1256;97823;-79
2023/01/12 01:59:43;;;;;;;47.30;26.50;;;;;;;3.44;100.00;99904.42;103691;1256;107880;-80
2023/01/12 02:02:11;;;;;;;43.00;24.70;;;;;;;3.45;100.00;99904.92;103339;1253;97708;-79
2023/01/12 02:04:39;;;;;;;41.80;25.20;;;;;;;3.46;100.00;99905.78;103579;1254;110626;-80
2023/01/12 02:07:07;;;;;;;40.10;25.70;;;;;;;3.48;100.00;99911.08;103231;1256;138657;-80
2023/01/12 02:09:34;;;;;;;42.00;23.80;;;;;;;3.50;100.00;99910.55;103447;1253;97815;-80
2023/01/12 02:17:42;;;;;;;;;;;;;;;3.55;100.00;99912.04;103485;1255;111471;-80
2023/01/12 02:20:39;;;;;;;42.30;24.70;;;;;;;3.58;100.00;99915.27;103306;1256;125541;-79
2023/01/12 02:23:38;;;;;;;43.00;24.90;;;;;;;3.61;100.00;99912.17;103413;1256;97885;-79
2023/01/12 02:26:47;;;;;;;40.40;24.70;;;;;;;3.65;100.00;99916.44;103343;1253;138284;-79
2023/01/12 02:29:41;;;;;;;40.00;23.80;;;;;;;3.70;100.00;99923.09;103627;1255;98227;-80
2023/01/12 02:32:19;;;;;;;40.20;24.10;;;;;;;3.75;100.00;99923.37;103130;1257;138514;-80
2023/01/12 02:34:56;;;;;;;40.20;24.80;;;;;;;3.79;100.00;99922.67;103167;1256;107983;-79
2023/01/12 02:37:35;;;;;;;40.90;24.20;;;;;;;3.82;100.00;99919.02;103195;1262;138609;-80
2023/01/12 02:40:07;;;;;;;39.00;23.70;;;;;;;3.86;100.00;99919.65;103309;1256;106852;-80
2023/01/12 02:42:43;;;;;;;35.80;22.90;;;;;;;3.90;100.00;99920.13;103521;1257;138851;-81
2023/01/12 02:45:22;;;;;;;38.50;23.30;;;;;;;3.92;100.00;99923.20;103050;1261;111280;-80
2023/01/12 02:47:55;;;;;;;39.60;24.70;;;;;;;3.94;100.00;99922.67;103103;1256;107800;-80
2023/01/12 02:50:29;;;;;;;35.10;23.20;;;;;;;3.98;100.00;99925.75;103360;1257;97908;-80
2023/01/12 02:53:01;;;;;;;38.90;23.70;;;;;;;4.00;100.00;99927.77;103007;1256;109255;-80
2023/01/12 02:55:30;;;;;;;39.60;23.60;;;;;;;4.03;100.00;99932.56;103254;1257;138670;-81
2023/01/12 02:58:00;;;;;;;34.50;21.70;;;;;;;4.06;100.00;99937.34;103014;1262;111534;-81
2023/01/12 03:00:28;;;;;;;35.80;21.70;;;;;;;4.07;100.00;99936.98;102889;1256;138747;-80
2023/01/12 03:02:55;;;;;;;33.90;21.50;;;;;;;4.09;100.00;99944.36;103023;1260;98335;-81
2023/01/12 03:05:25;;;;;;;34.40;22.00;;;;;;;4.10;100.00;99937.80;102972;1262;107349;-81
2023/01/12 03:07:55;;;;;;;38.30;22.40;;;;;;;4.12;100.00;99941.06;102830;1257;138486;-81
2023/01/12 03:10:46;;;;;;;38.80;23.60;;;;;;;4.15;100.00;99942.06;102576;1253;1003751;-81
2023/01/12 03:13:16;;;;;;;35.20;22.70;;;;;;;4.19;100.00;99943.58;103313;1254;138632;-81
2023/01/12 03:15:48;;;;;;;36.10;22.50;;;;;;;4.21;100.00;99945.44;103747;1254;97819;-82
2023/01/12 03:18:20;;;;;;;34.70;22.50;;;;;;;4.23;100.00;99951.95;102600;1253;1002586;-81
2023/01/12 03:20:52;;;;;;;36.80;23.00;;;;;;;4.26;100.00;99960.17;103581;1256;97797;-82
2023/01/12 03:23:23;;;;;;;35.80;23.40;;;;;;;4.29;100.00;99963.58;103598;1253;110716;-82
2023/01/12 03:25:54;;;;;;;35.80;22.20;;;;;;;4.30;100.00;99964.43;103580;1254;138916;-82
2023/01/12 03:28:26;;;;;;;33.70;22.90;;;;;;;4.31;100.00;99960.13;103523;1253;97681;-82
2023/01/12 03:30:59;;;;;;;38.10;23.10;;;;;;;4.32;100.00;99963.23;103367;1253;138355;-82
2023/01/12 03:33:27;;;;;;;36.30;23.00;;;;;;;4.33;100.00;99961.49;103584;1255;97804;-82
2023/01/12 03:36:06;;;;;;;33.40;22.20;;;;;;;4.34;100.00;99961.64;103355;1253;138449;-77
2023/01/12 03:38:41;;;;;;;37.00;23.00;;;;;;;4.36;100.00;99958.52;103959;1252;107896;-82
2023/01/12 03:41:18;;;;;;;33.60;22.40;;;;;;;4.37;100.00;99955.93;103806;1253;98382;-82
2023/01/12 03:43:52;;;;;;;35.00;21.80;;;;;;;4.39;100.00;99954.70;103293;1253;138309;-81
2023/01/12 03:46:26;;;;;;;35.30;23.90;;;;;;;4.41;100.00;99955.19;103494;1254;97654;-81
2023/01/12 03:48:57;;;;;;;35.50;22.60;;;;;;;4.44;100.00;99957.57;103330;1255;138326;-81
2023/01/12 03:51:29;;;;;;;36.00;22.90;;;;;;;4.46;100.00;99958.39;103467;1254;107779;-81
2023/01/12 03:53:57;;;;;;;35.90;23.80;;;;;;;4.49;100.00;99952.70;103444;1253;138772;-81
2023/01/12 03:56:28;;;;;;;38.30;23.00;;;;;;;4.51;100.00;99950.77;103537;1256;107101;-81
2023/01/12 03:58:55;;;;;;;35.00;22.50;;;;;;;4.55;100.00;99948.48;103508;1252;97789;-82
2023/01/12 04:01:22;;;;;;;34.50;21.30;;;;;;;4.59;100.00;99945.15;103567;1252;138344;-83
2023/01/12 04:03:49;;;;;;;37.70;23.50;;;;;;;4.64;100.00;99944.22;103830;1253;108725;-82
2023/01/12 04:06:16;;;;;;;36.00;22.30;;;;;;;4.68;100.00;99941.77;103217;1253;138969;-82
2023/01/12 04:08:43;;;;;;;33.90;21.50;;;;;;;4.73;100.00;99946.36;103481;1253;108133;-82
2023/01/12 04:13:51;;;;;;;34.50;21.30;;;;;;;4.77;100.00;99952.33;101403;1257;1004221;-83
2023/01/12 04:16:19;;;;;;;33.10;21.60;;;;;;;4.80;100.00;99961.91;102981;1257;107883;-82
2023/01/12 04:18:46;;;;;;;37.40;22.50;;;;;;;4.82;100.00;99962.58;102909;1259;139086;-83
2023/01/12 04:23:55;;;;;;;31.40;21.60;;;;;;;4.86;100.00;99965.81;102851;1260;138715;-82
2023/01/12 04:26:22;;;;;;;34.50;22.60;;;;;;;4.88;100.00;99972.52;103034;1257;111568;-83
2023/01/12 04:28:49;;;;;;;31.10;20.80;;;;;;;4.90;100.00;99973.70;102972;1260;107523;-83
2023/01/12 04:31:16;;;;;;;34.40;22.00;;;;;;;4.94;100.00;99973.12;102866;1261;140157;-83
2023/01/12 04:33:43;;;;;;;35.00;22.20;;;;;;;4.98;100.00;99976.15;102974;1259;107236;-83
2023/01/12 04:36:11;;;;;;;35.10;22.10;;;;;;;5.00;100.00;99978.02;103507;1258;138922;-83
2023/01/12 04:38:39;;;;;;;34.90;22.00;;;;;;;5.03;100.00;99976.27;103057;1257;112741;-85
2023/01/12 04:41:07;;;;;;;31.00;21.10;;;;;;;5.06;100.00;99977.78;103244;1257;109378;-83
2023/01/12 04:43:34;;;;;;;36.70;22.80;;;;;;;5.08;100.00;99979.30;102832;1257;138544;-84
2023/01/12 04:46:06;;;;;;;38.30;22.40;;;;;;;5.10;100.00;99977.71;103017;1256;107446;-84
2023/01/12 04:48:33;;;;;;;35.50;22.00;;;;;;;5.12;100.00;99976.66;102931;1257;139096;-83
2023/01/12 04:51:02;;;;;;;32.30;21.90;;;;;;;5.13;100.00;99977.49;102970;1259;110931;-83
2023/01/12 04:53:30;;;;;;;32.50;22.40;;;;;;;5.16;100.00;99979.69;103444;1254;107498;-83
2023/01/12 04:55:57;;;;;;;32.90;22.20;;;;;;;5.17;100.00;99975.89;103341;1256;139126;-83
2023/01/12 04:58:25;;;;;;;35.30;22.40;;;;;;;5.19;100.00;99975.69;103471;1252;106741;-84
2023/01/12 05:00:52;;;;;;;34.70;22.50;;;;;;;5.20;100.00;99974.63;103473;1251;138481;-84
2023/01/12 05:03:19;;;;;;;34.00;22.50;;;;;;;5.23;100.00;99980.48;103440;1253;112182;-84
2023/01/12 05:05:46;;;;;;;34.40;22.90;;;;;;;5.24;100.00;99974.77;103574;1253;107199;-84
2023/01/12 05:11:01;;;;;;;32.90;20.50;;;;;;;5.29;100.00;99980.71;103470;1253;107407;-85
2023/01/12 05:13:30;;;;;;;36.60;22.40;;;;;;;5.31;100.00;99978.27;103408;1255;138651;-84
2023/01/12 05:16:06;;;;;;;33.00;21.30;;;;;;;5.32;100.00;99972.90;103469;1254;110881;-84
2023/01/12 05:18:34;;;;;;;33.80;21.50;;;;;;;5.33;100.00;99970.98;103370;1252;140455;-84
2023/01/12 05:21:01;;;;;;;31.80;22.00;;;;;;;5.35;100.00;99977.00;103529;1253;97700;-84
2023/01/12 05:23:28;;;;;;;32.20;21.70;;;;;;;5.35;100.00;99976.83;103443;1253;109124;-83
2023/01/12 05:26:00;;;;;;;34.20;21.90;;;;;;;5.36;100.00;99980.94;103377;1253;138770;-83
2023/01/12 05:28:27;;;;;;;30.30;20.20;;;;;;;5.38;100.00;99977.98;103525;1255;111679;-83
2023/01/12 05:30:54;;;;;;;30.80;20.30;;;;;;;5.40;100.00;99976.93;103506;1253;138630;-83
2023/01/12 05:33:22;;;;;;;30.40;20.90;;;;;;;5.41;100.00;99976.58;103502;1253;97804;-83
2023/01/12 05:35:49;;;;;;;30.10;20.20;;;;;;;5.43;100.00;99976.53;103446;1253;108873;-83
2023/01/12 05:38:16;;;;;;;29.00;19.90;;;;;;;5.45;100.00;99979.09;102759;1254;1003070;-83
2023/01/12 05:40:43;;;;;;;30.40;20.20;;;;;;;5.49;100.00;99983.70;103540;1253;111217;-83
2023/01/12 05:46:02;;;;;;;31.40;20.70;;;;;;;5.53;100.00;99987.06;102737;1256;1003097;-84
2023/01/12 05:48:29;;;;;;;29.90;20.60;;;;;;;5.55;100.00;99992.02;103325;1256;138944;-83
2023/01/12 05:50:58;;;;;;;34.70;21.50;;;;;;;5.57;100.00;99994.95;104312;1253;96054;-84
2023/01/12 05:53:26;;;;;;;33.20;21.80;;;;;;;5.59;100.00;99993.02;103455;1256;110838;-83
2023/01/12 05:55:53;;;;;;;31.80;20.80;;;;;;;5.60;100.00;99995.59;103372;1256;138472;-83
2023/01/12 05:58:20;;;;;;;33.30;21.80;;;;;;;5.62;100.00;99998.83;103492;1253;98474;-83
2023/01/12 06:00:47;;;;;;;33.90;21.70;;;;;;;5.64;100.00;99997.42;103378;1251;138840;-83
2023/01/12 06:03:15;;;;;;;31.00;21.50;;;;;;;5.65;100.00;100008.96;103584;1252;97848;-83
2023/01/12 06:05:42;;;;;;;31.10;21.20;;;;;;;5.65;100.00;100007.75;104040;1252;111239;-83
2023/01/12 06:08:09;;;;;;;32.60;22.50;;;;;;;5.66;100.00;100006.86;103324;1253;139692;-83
2023/01/12 06:10:38;;;;;;;36.40;22.90;;;;;;;5.68;100.00;100005.63;103535;1253;98408;-83
2023/01/12 06:15:50;;;;;;;33.60;21.00;;;;;;;5.72;100.00;100004.87;103563;1254;97796;-85
2023/01/12 06:18:21;;;;;;;30.80;21.70;;;;;;;5.74;100.00;100002.42;103436;1253;138755;-85
2023/01/12 06:20:48;;;;;;;37.70;24.00;;;;;;;5.75;100.00;100004.33;103466;1256;107114;-82
2023/01/12 06:23:15;;;;;;;36.30;22.20;;;;;;;5.75;100.00;100007.24;103487;1256;98255;-81
2023/01/12 06:25:42;;;;;;;38.10;22.30;;;;;;;5.76;100.00;100009.65;103454;1253;138467;-82
2023/01/12 06:28:09;;;;;;;35.80;23.40;;;;;;;5.76;100.00;100012.05;103433;1256;97816;-81
2023/01/12 06:30:37;;;;;;;35.10;22.60;;;;;;;5.77;100.00;100013.95;103457;1253;138513;-85
2023/01/12 06:33:05;;;;;;;35.10;22.90;;;;;;;5.78;100.00;100017.73;103434;1256;106787;-84
2023/01/12 06:35:31;;;;;;;39.70;23.40;;;;;;;5.78;100.00;100017.03;103444;1253;97782;-84
2023/01/12 06:37:59;;;;;;;39.50;23.10;;;;;;;5.79;100.00;100019.09;103315;1252;139713;-81
2023/01/12 06:40:26;;;;;;;36.90;22.90;;;;;;;5.80;100.00;100019.07;103366;1253;97803;-81
2023/01/12 06:42:53;;;;;;;36.70;23.30;;;;;;;5.81;100.00;100025.43;103347;1252;138457;-81
2023/01/12 06:45:20;;;;;;;38.10;23.20;;;;;;;5.81;100.00;100024.91;103507;1251;106692;-83
2023/01/12 06:47:50;;;;;;;39.50;23.40;;;;;;;5.82;100.00;100024.04;103536;1253;97678;-82
2023/01/12 06:50:18;;;;;;;41.70;24.00;;;;;;;5.83;100.00;100018.33;103445;1254;108291;-83
2023/01/12 06:52:46;;;;;;;37.70;23.00;;;;;;;5.83;100.00;100018.33;103423;1253;97783;-84
2023/01/12 06:55:13;;;;;;;42.40;24.40;;;;;;;5.83;100.00;100014.52;103407;1256;138489;-84
2023/01/12 06:57:40;;;;;;;44.80;25.40;;;;;;;5.84;100.00;100015.55;103511;1256;106674;-83
2023/01/12 07:00:11;;;;;;;41.10;24.20;;;;;;;5.85;100.00;100018.80;103374;1254;138992;-82
2023/01/12 07:02:39;;;;;;;38.10;22.70;;;;;;;5.88;100.00;100020.14;103693;1252;107702;-84
2023/01/12 07:05:07;;;;;;;38.90;23.50;;;;;;;5.89;100.00;100026.16;102672;1253;1002648;-85
2023/01/12 07:07:36;;;;;;;38.60;23.90;;;;;;;5.90;100.00;100032.20;103383;1255;138971;-86
2023/01/12 07:10:07;;;;;;;38.00;23.10;;;;;;;5.90;100.00;100036.85;102613;1256;1003744;-84
2023/01/12 07:12:34;;;;;;;38.70;24.00;;;;;;;5.92;100.00;100044.08;103310;1253;138990;-86
2023/01/12 07:15:02;;;;;;;39.90;24.60;;;;;;;5.93;100.00;100049.42;103440;1252;107727;-81
2023/01/12 07:17:29;;;;;;;37.60;24.50;;;;;;;5.95;100.00;100052.34;103283;1256;97925;-85
2023/01/12 07:19:56;;;;;;;38.30;24.20;;;;;;;5.96;100.00;100051.11;102392;1256;1002798;-83
2023/01/12 07:22:25;;;;;;;43.50;25.70;;;;;;;5.97;100.00;100052.64;103224;1253;107774;-84
2023/01/12 07:24:52;;;;;;;38.80;24.60;;;;;;;5.99;100.00;100058.30;103208;1253;138817;-86
2023/01/12 07:27:19;;;;;;;44.90;25.50;;;;;;;6.01;100.00;100059.48;103246;1255;108369;-76
2023/01/12 07:29:46;;;;;;;40.00;25.30;;;;;;;6.02;100.00;100063.42;103376;1256;97826;-80
2023/01/12 07:32:13;;;;;;;45.00;27.10;;;;;;;6.03;100.00;100061.34;103315;1253;140197;-85
2023/01/12 07:34:40;;;;;;;44.50;25.60;;;;;;;6.04;100.00;100062.35;103315;1252;107378;-76
2023/01/12 07:37:07;;;;;;;40.00;25.00;;;;;;;6.04;100.00;100064.93;103278;1256;139936;-75
2023/01/12 07:39:37;;;;;;;40.90;25.20;;;;;;;6.05;100.00;100061.63;103432;1256;107411;-75
2023/01/12 07:44:57;;;;;;;40.50;24.60;;;;;;;6.11;100.00;100068.29;102983;1258;111559;-72
2023/01/12 07:47:26;;;;;;;37.30;24.00;;;;;;;6.13;100.00;100075.86;102900;1258;107334;-75
2023/01/12 07:49:53;;;;;;;36.50;23.40;;;;;;;6.15;100.00;100072.54;102772;1261;139458;-74
2023/01/12 07:52:20;;;;;;;37.80;23.50;;;;;;;6.18;100.00;100070.41;102915;1257;107096;-74
2023/01/12 07:54:48;;;;;;;41.10;25.20;;;;;;;6.20;100.00;100065.88;102680;1259;140491;-75
2023/01/12 07:57:15;;;;;;;37.70;22.80;;;;;;;6.24;100.00;100070.47;102978;1262;111545;-75
2023/01/12 07:59:42;;;;;;;36.70;23.40;;;;;;;6.26;100.00;100068.88;102891;1262;106849;-76
2023/01/12 08:02:15;;;;;;;35.30;21.90;;;;;;;6.29;100.00;100075.40;102698;1257;138861;-76
2023/01/12 08:04:42;;;;;;;38.70;21.80;;;;;;;6.31;100.00;100081.77;102760;1257;107145;-82
2023/01/12 08:07:10;;;;;;;34.90;20.40;;;;;;;6.33;100.00;100085.86;102776;1262;140220;-82
2023/01/12 08:09:37;;;;;;;34.70;20.90;;;;;;;6.39;100.00;100085.92;102925;1257;110814;-78
2023/01/12 08:12:04;;;;;;;37.20;23.20;;;;;;;6.47;100.00;100080.42;102614;1257;139169;-74
2023/01/12 08:14:37;;;;;;;34.50;20.50;;;;;;;6.50;100.00;100089.20;102855;1259;97683;-74
2023/01/12 08:17:06;;;;;;;33.00;20.90;;;;;;;6.49;99.99;100093.02;102838;1257;108194;-75
2023/01/12 08:19:39;;;;;;;31.50;20.30;;;;;;;6.50;99.92;100099.21;102630;1263;139378;-73
2023/01/12 08:22:09;;;;;;;34.50;20.20;;;;;;;6.49;99.64;100096.30;103254;1253;110990;-73
2023/01/12 08:24:42;;;;;;;31.90;20.30;;;;;;;6.48;99.29;100093.37;103181;1253;138586;-74
2023/01/12 08:27:10;;;;;;;36.30;20.10;;;;;;;6.48;99.10;100093.73;103247;1253;98425;-74
2023/01/12 08:29:42;;;;;;;32.70;21.00;;;;;;;6.46;98.99;100089.77;103141;1254;107251;-75
2023/01/12 08:32:13;;;;;;;33.90;20.50;;;;;;;6.47;99.14;100088.73;103233;1256;138322;-75
2023/01/12 08:34:43;;;;;;;32.00;19.90;;;;;;;6.47;98.76;100091.15;103351;1256;111379;-75
2023/01/12 08:37:15;;;;;;;33.00;19.90;;;;;;;6.47;98.64;100092.36;103285;1253;138458;-73
2023/01/12 08:39:43;;;;;;;32.60;20.70;;;;;;;6.49;98.63;100087.83;103364;1254;98309;-74
2023/01/12 08:42:10;;;;;;;32.00;19.80;;;;;;;6.55;98.77;100093.24;103204;1253;138503;-75
2023/01/12 08:44:37;;;;;;;36.50;21.20;;;;;;;6.60;98.48;100095.21;103388;1253;97772;-75
2023/01/12 08:47:06;;;;;;;33.60;20.30;;;;;;;6.67;98.24;100096.83;103409;1253;110707;-77
2023/01/12 08:49:34;;;;;;;31.50;19.30;;;;;;;6.86;98.32;100092.66;103297;1252;138796;-76
2023/01/12 08:52:01;;;;;;;33.10;19.60;;;;;;;7.14;97.49;100091.05;103448;1256;97702;-77
2023/01/12 08:54:28;;;;;;;29.10;18.70;;;;;;;7.48;96.91;100097.59;103316;1256;138497;-76
2023/01/12 08:56:56;;;;;;;30.70;18.50;;;;;;;7.84;96.41;100099.37;103485;1253;97801;-75
2023/01/12 08:59:24;;;;;;;27.40;18.50;;;;;;;8.13;94.46;100110.11;103436;1252;111530;-75
2023/01/12 09:01:52;;;;;;;25.80;17.80;;;;;;;8.39;93.80;100106.20;103148;1251;139445;-75
2023/01/12 09:04:19;;;;;;;26.60;17.20;;;;;;;8.73;93.21;100102.36;103396;1256;97778;-77
2023/01/12 09:06:47;;;;;;;26.50;16.50;;;;;;;8.95;91.36;100104.37;103254;1253;140267;-76
2023/01/12 09:09:15;;;;;;;22.60;14.70;;;;;;;9.19;90.71;100101.77;103267;1256;97851;-74
2023/01/12 09:11:44;;;;;;;24.80;15.40;;;;;;;9.43;89.19;100092.58;103325;1256;109829;-76
2023/01/12 09:14:12;;;;;;;20.90;14.20;;;;;;;9.67;88.00;100094.60;103250;1253;139423;-76
2023/01/12 09:16:39;;;;;;;24.60;14.60;;;;;;;9.87;87.82;100090.35;103491;1253;97838;-77
2023/01/12 09:19:06;;;;;;;25.80;14.10;;;;;;;10.04;87.62;100091.34;103231;1253;139465;-76
2023/01/12 09:21:36;;;;;;;23.50;13.70;;;;;;;10.04;85.37;100081.96;103262;1256;97794;-77
2023/01/12 09:24:04;;;;;;;20.20;13.40;;;;;;;9.94;84.69;100080.56;103351;1256;139613;-77
2023/01/12 09:26:36;;;;;;;20.20;13.50;;;;;;;9.76;84.51;100077.83;103396;1256;105984;-76
2023/01/12 09:29:04;;;;;;;20.80;12.50;;;;;;;9.65;84.86;100079.73;103398;1253;97882;-76
2023/01/12 09:31:32;;;;;;;23.10;12.60;;;;;;;9.65;85.05;100071.92;103340;1254;143050;-76
2023/01/12 09:34:00;;;;;;;20.50;12.50;;;;;;;9.71;83.76;100072.80;103367;1256;97776;-75
2023/01/12 09:36:29;;;;;;;18.70;11.80;;;;;;;9.86;85.14;100068.50;103245;1256;140057;-75
2023/01/12 09:38:58;;;;;;;18.40;12.20;;;;;;;10.07;84.27;100071.27;103319;1253;108168;-75
2023/01/12 09:47:15;;;;;;;16.60;10.70;;;;;;;10.18;82.05;100059.09;103483;1253;98236;-76
2023/01/12 09:49:47;;;;;;;18.60;11.80;;;;;;;10.30;81.89;100059.59;103276;1253;138653;-76
2023/01/12 09:52:19;;;;;;;18.20;11.20;;;;;;;10.49;81.22;100060.84;103349;1256;108598;-72
2023/01/12 09:54:51;;;;;;;17.90;10.80;;;;;;;10.60;80.71;100052.81;103266;1252;138849;-74
2023/01/12 09:57:47;;;;;;;30.30;11.40;;;;;;;10.82;80.56;100053.41;103293;1253;107689;-72
2023/01/12 10:00:17;;;;;;;16.40;10.30;;;;;;;11.06;79.49;100049.94;103257;1252;138969;-72
2023/01/12 10:02:47;;;;;;;21.20;10.50;;;;;;;11.09;78.48;100045.46;103338;1256;110836;-73
2023/01/12 10:05:22;;;;;;;17.40;10.50;;;;;;;11.19;79.51;100035.66;103240;1256;106887;-74
2023/01/12 10:07:57;;;;;;;17.90;9.70;;;;;;;11.38;78.63;100032.00;103393;1256;139516;-73
2023/01/12 10:10:24;;;;;;;16.10;9.70;;;;;;;11.47;77.49;100031.98;103322;1256;107693;-72
2023/01/12 10:12:56;;;;;;;16.90;9.20;;;;;;;11.55;76.88;100034.99;103212;1254;140256;-72
2023/01/12 10:15:42;;;;;;;14.10;9.10;;;;;;;11.58;76.61;100031.38;103320;1256;110847;-72
2023/01/12 10:18:17;;;;;;;18.10;8.90;;;;;;;11.65;76.72;100030.22;103273;1256;138882;-73
2023/01/12 10:20:45;;;;;;;14.40;7.70;;;;;;;11.78;76.68;100035.31;103353;1253;97701;-74
2023/01/12 10:23:17;;;;;;;17.70;8.70;;;;;;;11.82;75.84;100031.48;103476;1256;109086;-73
2023/01/12 10:25:48;;;;;;;16.40;8.20;;;;;;;11.90;74.91;100026.98;103343;1253;138687;-73
2023/01/12 10:28:22;;;;;;;16.10;7.20;;;;;;;11.98;74.18;100026.65;103428;1253;111329;-73
2023/01/12 10:30:51;;;;;;;17.30;7.90;;;;;;;11.97;74.22;100036.98;103310;1254;138682;-71
2023/01/12 10:33:23;;;;;;;17.40;7.90;;;;;;;11.92;74.32;100029.68;103440;1256;98298;-72
2023/01/12 10:35:55;;;;;;;12.80;6.70;;;;;;;12.04;74.73;100027.62;103359;1256;107280;-72
2023/01/12 10:38:27;;;;;;;11.00;6.50;;;;;;;12.14;74.73;100027.89;103569;1253;97784;-71
2023/01/12 10:41:12;;;;;;;10.90;5.90;;;;;;;12.20;74.26;100017.01;103484;1253;111448;-73
2023/01/12 10:43:41;;;;;;;14.70;6.50;;;;;;;12.33;73.68;100020.27;103269;1252;139681;-72
2023/01/12 10:46:12;;;;;;;13.00;6.50;;;;;;;12.31;73.11;100013.04;103475;1251;97926;-75
2023/01/12 10:48:42;;;;;;;12.70;6.40;;;;;;;12.38;71.33;100013.61;103158;1253;138498;-75
2023/01/12 10:51:21;;;;;;;13.70;7.20;;;;;;;12.39;70.18;100007.98;103348;1256;97794;-77
2023/01/12 10:53:52;;;;;;;14.00;6.60;;;;;;;12.31;71.38;100002.94;103718;1253;109859;-76
2023/01/12 10:56:27;;;;;;;14.50;6.50;;;;;;;12.34;70.94;99998.29;103351;1256;108974;-73
2023/01/12 10:58:58;;;;;;;13.10;7.00;;;;;;;12.45;71.69;99991.52;103413;1253;97718;-75
2023/01/12 11:01:25;;;;;;;13.20;6.30;;;;;;;12.44;69.72;99994.36;103246;1253;138512;-75
2023/01/12 11:04:03;;;;;;;10.70;6.10;;;;;;;12.31;69.42;99994.93;103302;1252;97794;-72
2023/01/12 11:06:31;;;;;;;12.90;6.70;;;;;;;12.07;68.27;99989.33;103563;1254;138156;-74
2023/01/12 11:09:16;;;;;;;13.60;6.90;;;;;;;11.87;69.01;99988.77;103373;1253;107083;-73
2023/01/12 11:11:43;;;;;;;13.00;6.90;;;;;;;11.69;68.92;99987.91;103311;1252;97784;-72
2023/01/12 11:14:25;;;;;;;13.40;8.00;;;;;;;11.60;70.52;99982.35;103342;1254;138627;-74
2023/01/12 11:16:52;;;;;;;17.10;8.30;;;;;;;11.64;70.74;99981.52;103404;1253;97800;-72
2023/01/12 11:19:23;;;;;;;16.10;8.00;;;;;;;11.54;69.77;99982.27;103208;1256;138389;-71
2023/01/12 11:21:56;;;;;;;18.10;8.20;;;;;;;11.35;68.92;99984.07;103400;1256;107834;-73
2023/01/12 11:24:37;;;;;;;15.60;8.40;;;;;;;11.17;69.82;99980.41;103349;1254;140301;-75
2023/01/12 11:27:13;;;;;;;15.00;8.50;;;;;;;11.04;70.61;99973.80;103263;1256;107934;-72
2023/01/12 11:29:52;;;;;;;17.00;8.80;;;;;;;10.98;70.97;99979.98;103256;1253;97948;-73
2023/01/12 11:32:28;;;;;;;19.00;10.00;;;;;;;10.89;71.17;99978.70;103444;1251;111088;-72
2023/01/12 11:35:04;;;;;;;18.40;9.60;;;;;;;10.80;71.12;99975.75;103342;1254;107064;-73
2023/01/12 11:37:33;;;;;;;17.10;9.30;;;;;;;10.64;70.13;99974.08;103385;1256;138507;-74
2023/01/12 11:40:08;;;;;;;14.60;8.80;;;;;;;10.43;71.07;99969.13;103430;1256;107650;-73
2023/01/12 11:45:29;;;;;;;17.70;9.60;;;;;;;10.17;72.59;99961.83;103487;1254;111467;-73
2023/01/12 11:47:59;;;;;;;17.00;10.10;;;;;;;10.09;71.92;99956.20;103442;1253;107750;-73
2023/01/12 11:50:30;;;;;;;15.10;9.50;;;;;;;10.00;72.62;99954.80;103442;1254;97799;-73
2023/01/12 11:52:58;;;;;;;18.00;9.30;;;;;;;9.96;72.44;99963.61;103336;1253;107759;-74